sensor_id;sensor_type;location;lat;lon;timestamp;P1;durP1;ratioP1;P2;durP2;ratioP2
43933;SDS011;59081;42.706;23.306;2022-12-29T00:01:16;27.50;;;15.57;;
43933;SDS011;59081;42.706;23.306;2022-12-29T00:03:45;25.40;;;16.13;;
43933;SDS011;59081;42.706;23.306;2022-12-29T00:06:13;30.08;;;19.27;;
43933;SDS011;59081;42.706;23.306;2022-12-29T00:08:39;24.80;;;16.67;;
43933;SDS011;59081;42.706;23.306;2022-12-29T00:11:09;31.90;;;17.40;;
43933;SDS011;59081;42.706;23.306;2022-12-29T00:13:47;28.10;;;16.13;;
43933;SDS011;59081;42.706;23.306;2022-12-29T00:16:35;29.30;;;16.65;;
43933;SDS011;59081;42.706;23.306;2022-12-29T00:19:03;31.33;;;18.42;;
43933;SDS011;59081;42.706;23.306;2022-12-29T00:21:32;35.60;;;18.63;;
43933;SDS011;59081;42.706;23.306;2022-12-29T00:24:19;33.90;;;18.45;;
43933;SDS011;59081;42.706;23.306;2022-12-29T00:26:53;36.13;;;18.52;;
43933;SDS011;59081;42.706;23.306;2022-12-29T00:29:41;34.70;;;18.17;;
43933;SDS011;59081;42.706;23.306;2022-12-29T00:32:26;33.88;;;18.90;;
43933;SDS011;59081;42.706;23.306;2022-12-29T00:35:11;38.15;;;19.52;;
43933;SDS011;59081;42.706;23.306;2022-12-29T00:37:43;37.47;;;20.15;;
43933;SDS011;59081;42.706;23.306;2022-12-29T00:43:23;43.05;;;20.65;;
43933;SDS011;59081;42.706;23.306;2022-12-29T00:46:11;35.30;;;20.90;;
43933;SDS011;59081;42.706;23.306;2022-12-29T00:48:36;36.15;;;20.70;;
43933;SDS011;59081;42.706;23.306;2022-12-29T00:51:21;35.90;;;21.60;;
43933;SDS011;59081;42.706;23.306;2022-12-29T00:53:49;36.83;;;21.90;;
43933;SDS011;59081;42.706;23.306;2022-12-29T00:56:18;33.92;;;20.70;;
43933;SDS011;59081;42.706;23.306;2022-12-29T00:58:44;38.05;;;20.90;;
43933;SDS011;59081;42.706;23.306;2022-12-29T01:01:09;39.40;;;20.92;;
43933;SDS011;59081;42.706;23.306;2022-12-29T01:03:36;40.10;;;20.80;;
43933;SDS011;59081;42.706;23.306;2022-12-29T01:06:02;38.08;;;20.70;;
43933;SDS011;59081;42.706;23.306;2022-12-29T01:08:35;39.25;;;20.75;;
43933;SDS011;59081;42.706;23.306;2022-12-29T01:11:05;35.63;;;20.48;;
43933;SDS011;59081;42.706;23.306;2022-12-29T01:13:33;31.92;;;19.05;;
43933;SDS011;59081;42.706;23.306;2022-12-29T01:16:00;35.60;;;18.83;;
43933;SDS011;59081;42.706;23.306;2022-12-29T01:18:32;30.58;;;19.40;;
43933;SDS011;59081;42.706;23.306;2022-12-29T01:21:00;31.65;;;17.70;;
43933;SDS011;59081;42.706;23.306;2022-12-29T01:23:27;30.90;;;18.33;;
43933;SDS011;59081;42.706;23.306;2022-12-29T01:25:56;31.27;;;18.55;;
43933;SDS011;59081;42.706;23.306;2022-12-29T01:28:33;28.33;;;18.15;;
43933;SDS011;59081;42.706;23.306;2022-12-29T01:31:01;28.27;;;16.92;;
43933;SDS011;59081;42.706;23.306;2022-12-29T01:33:27;26.45;;;17.13;;
43933;SDS011;59081;42.706;23.306;2022-12-29T01:36:02;33.55;;;17.98;;
43933;SDS011;59081;42.706;23.306;2022-12-29T01:38:31;29.02;;;17.52;;
43933;SDS011;59081;42.706;23.306;2022-12-29T01:41:01;29.42;;;16.17;;
43933;SDS011;59081;42.706;23.306;2022-12-29T01:43:44;32.53;;;18.45;;
43933;SDS011;59081;42.706;23.306;2022-12-29T01:46:28;26.00;;;15.35;;
43933;SDS011;59081;42.706;23.306;2022-12-29T01:51:58;33.95;;;17.90;;
43933;SDS011;59081;42.706;23.306;2022-12-29T01:57:03;32.92;;;17.05;;
43933;SDS011;59081;42.706;23.306;2022-12-29T01:59:37;28.90;;;16.70;;
43933;SDS011;59081;42.706;23.306;2022-12-29T02:02:13;28.73;;;15.05;;
43933;SDS011;59081;42.706;23.306;2022-12-29T02:04:40;27.83;;;16.45;;
43933;SDS011;59081;42.706;23.306;2022-12-29T02:07:18;27.23;;;17.17;;
43933;SDS011;59081;42.706;23.306;2022-12-29T02:09:56;28.52;;;16.98;;
43933;SDS011;59081;42.706;23.306;2022-12-29T02:12:23;32.22;;;17.02;;
43933;SDS011;59081;42.706;23.306;2022-12-29T02:14:50;30.92;;;17.92;;
43933;SDS011;59081;42.706;23.306;2022-12-29T02:23:21;28.70;;;16.80;;
43933;SDS011;59081;42.706;23.306;2022-12-29T02:26:29;27.90;;;17.52;;
43933;SDS011;59081;42.706;23.306;2022-12-29T02:31:58;28.77;;;16.35;;
43933;SDS011;59081;42.706;23.306;2022-12-29T02:37:22;30.13;;;17.92;;
43933;SDS011;59081;42.706;23.306;2022-12-29T02:40:01;31.23;;;17.33;;
43933;SDS011;59081;42.706;23.306;2022-12-29T02:43:02;32.47;;;17.58;;
43933;SDS011;59081;42.706;23.306;2022-12-29T02:45:36;24.95;;;16.65;;
43933;SDS011;59081;42.706;23.306;2022-12-29T02:48:28;31.98;;;18.77;;
43933;SDS011;59081;42.706;23.306;2022-12-29T02:53:56;31.10;;;17.52;;
43933;SDS011;59081;42.706;23.306;2022-12-29T02:56:44;38.17;;;17.95;;
43933;SDS011;59081;42.706;23.306;2022-12-29T02:59:10;32.22;;;17.88;;
43933;SDS011;59081;42.706;23.306;2022-12-29T03:10:25;29.52;;;17.55;;
43933;SDS011;59081;42.706;23.306;2022-12-29T03:13:02;32.88;;;18.00;;
43933;SDS011;59081;42.706;23.306;2022-12-29T03:16:35;28.88;;;17.58;;
43933;SDS011;59081;42.706;23.306;2022-12-29T03:18:59;28.75;;;17.98;;
43933;SDS011;59081;42.706;23.306;2022-12-29T03:21:47;30.73;;;18.60;;
43933;SDS011;59081;42.706;23.306;2022-12-29T03:24:40;33.83;;;18.60;;
43933;SDS011;59081;42.706;23.306;2022-12-29T03:27:15;34.80;;;18.63;;
43933;SDS011;59081;42.706;23.306;2022-12-29T03:29:46;31.98;;;18.23;;
43933;SDS011;59081;42.706;23.306;2022-12-29T03:32:18;34.30;;;19.60;;
43933;SDS011;59081;42.706;23.306;2022-12-29T03:34:48;31.63;;;18.98;;
43933;SDS011;59081;42.706;23.306;2022-12-29T03:37:21;38.55;;;18.27;;
43933;SDS011;59081;42.706;23.306;2022-12-29T03:39:51;36.47;;;17.98;;
43933;SDS011;59081;42.706;23.306;2022-12-29T03:42:21;39.35;;;18.67;;
43933;SDS011;59081;42.706;23.306;2022-12-29T03:44:53;32.08;;;17.88;;
43933;SDS011;59081;42.706;23.306;2022-12-29T03:47:21;29.60;;;18.48;;
43933;SDS011;59081;42.706;23.306;2022-12-29T03:49:48;33.17;;;18.70;;
43933;SDS011;59081;42.706;23.306;2022-12-29T03:52:17;35.40;;;18.92;;
43933;SDS011;59081;42.706;23.306;2022-12-29T03:54:43;29.90;;;18.27;;
43933;SDS011;59081;42.706;23.306;2022-12-29T03:57:15;32.67;;;18.63;;
43933;SDS011;59081;42.706;23.306;2022-12-29T03:59:48;33.83;;;18.40;;
43933;SDS011;59081;42.706;23.306;2022-12-29T04:02:16;34.45;;;19.65;;
43933;SDS011;59081;42.706;23.306;2022-12-29T04:04:45;32.78;;;17.75;;
43933;SDS011;59081;42.706;23.306;2022-12-29T04:07:11;36.78;;;20.10;;
43933;SDS011;59081;42.706;23.306;2022-12-29T04:09:46;37.35;;;18.45;;
43933;SDS011;59081;42.706;23.306;2022-12-29T04:12:17;39.22;;;18.85;;
43933;SDS011;59081;42.706;23.306;2022-12-29T04:17:23;36.05;;;19.10;;
43933;SDS011;59081;42.706;23.306;2022-12-29T04:19:55;34.50;;;19.73;;
43933;SDS011;59081;42.706;23.306;2022-12-29T04:22:43;35.55;;;21.88;;
43933;SDS011;59081;42.706;23.306;2022-12-29T04:25:44;34.85;;;19.77;;
43933;SDS011;59081;42.706;23.306;2022-12-29T04:28:13;33.88;;;20.20;;
43933;SDS011;59081;42.706;23.306;2022-12-29T04:30:45;37.65;;;21.95;;
43933;SDS011;59081;42.706;23.306;2022-12-29T04:33:17;32.30;;;19.75;;
43933;SDS011;59081;42.706;23.306;2022-12-29T04:35:43;45.65;;;21.55;;
43933;SDS011;59081;42.706;23.306;2022-12-29T04:38:09;34.15;;;18.60;;
43933;SDS011;59081;42.706;23.306;2022-12-29T04:40:37;34.28;;;20.55;;
43933;SDS011;59081;42.706;23.306;2022-12-29T04:43:06;32.97;;;19.70;;
43933;SDS011;59081;42.706;23.306;2022-12-29T04:45:35;38.40;;;20.50;;
43933;SDS011;59081;42.706;23.306;2022-12-29T04:48:00;38.92;;;22.00;;
43933;SDS011;59081;42.706;23.306;2022-12-29T04:50:35;34.65;;;19.35;;
43933;SDS011;59081;42.706;23.306;2022-12-29T04:53:07;44.30;;;23.63;;
43933;SDS011;59081;42.706;23.306;2022-12-29T04:55:36;38.80;;;22.10;;
43933;SDS011;59081;42.706;23.306;2022-12-29T04:58:05;36.58;;;20.98;;
43933;SDS011;59081;42.706;23.306;2022-12-29T05:00:31;39.42;;;20.58;;
43933;SDS011;59081;42.706;23.306;2022-12-29T05:03:00;33.75;;;20.02;;
43933;SDS011;59081;42.706;23.306;2022-12-29T05:05:32;36.65;;;19.95;;
43933;SDS011;59081;42.706;23.306;2022-12-29T05:08:10;36.92;;;20.25;;
43933;SDS011;59081;42.706;23.306;2022-12-29T05:10:36;35.30;;;20.42;;
43933;SDS011;59081;42.706;23.306;2022-12-29T05:13:08;48.20;;;25.48;;
43933;SDS011;59081;42.706;23.306;2022-12-29T05:15:34;39.63;;;22.95;;
43933;SDS011;59081;42.706;23.306;2022-12-29T05:18:03;44.97;;;24.90;;
43933;SDS011;59081;42.706;23.306;2022-12-29T05:20:40;41.50;;;23.95;;
43933;SDS011;59081;42.706;23.306;2022-12-29T05:23:14;47.10;;;23.63;;
43933;SDS011;59081;42.706;23.306;2022-12-29T05:25:46;40.53;;;23.17;;
43933;SDS011;59081;42.706;23.306;2022-12-29T05:28:13;48.88;;;22.25;;
43933;SDS011;59081;42.706;23.306;2022-12-29T05:30:39;38.30;;;21.48;;
43933;SDS011;59081;42.706;23.306;2022-12-29T05:33:05;48.40;;;21.45;;
43933;SDS011;59081;42.706;23.306;2022-12-29T05:35:39;38.45;;;20.45;;
43933;SDS011;59081;42.706;23.306;2022-12-29T05:38:11;35.25;;;20.15;;
43933;SDS011;59081;42.706;23.306;2022-12-29T05:40:45;33.95;;;20.25;;
43933;SDS011;59081;42.706;23.306;2022-12-29T05:43:16;40.25;;;21.90;;
43933;SDS011;59081;42.706;23.306;2022-12-29T05:45:51;29.17;;;17.67;;
43933;SDS011;59081;42.706;23.306;2022-12-29T05:48:20;36.03;;;21.30;;
43933;SDS011;59081;42.706;23.306;2022-12-29T05:50:59;37.03;;;19.92;;
43933;SDS011;59081;42.706;23.306;2022-12-29T05:53:27;36.22;;;21.88;;
43933;SDS011;59081;42.706;23.306;2022-12-29T05:55:56;42.95;;;22.25;;
43933;SDS011;59081;42.706;23.306;2022-12-29T05:58:25;40.45;;;22.75;;
43933;SDS011;59081;42.706;23.306;2022-12-29T06:00:59;36.22;;;21.15;;
43933;SDS011;59081;42.706;23.306;2022-12-29T06:03:27;42.53;;;21.98;;
43933;SDS011;59081;42.706;23.306;2022-12-29T06:05:53;41.95;;;23.05;;
43933;SDS011;59081;42.706;23.306;2022-12-29T06:08:22;47.53;;;22.55;;
43933;SDS011;59081;42.706;23.306;2022-12-29T06:10:50;41.13;;;22.98;;
43933;SDS011;59081;42.706;23.306;2022-12-29T06:13:21;43.53;;;23.65;;
43933;SDS011;59081;42.706;23.306;2022-12-29T06:16:11;47.45;;;23.50;;
43933;SDS011;59081;42.706;23.306;2022-12-29T06:18:39;48.35;;;23.02;;
43933;SDS011;59081;42.706;23.306;2022-12-29T06:21:08;39.03;;;21.40;;
43933;SDS011;59081;42.706;23.306;2022-12-29T06:23:37;41.03;;;21.38;;
43933;SDS011;59081;42.706;23.306;2022-12-29T06:26:02;34.70;;;21.20;;
43933;SDS011;59081;42.706;23.306;2022-12-29T06:28:31;32.58;;;19.55;;
43933;SDS011;59081;42.706;23.306;2022-12-29T06:31:00;34.20;;;19.58;;
43933;SDS011;59081;42.706;23.306;2022-12-29T06:33:29;28.20;;;19.00;;
43933;SDS011;59081;42.706;23.306;2022-12-29T06:35:57;32.67;;;19.02;;
43933;SDS011;59081;42.706;23.306;2022-12-29T06:38:23;34.85;;;17.85;;
43933;SDS011;59081;42.706;23.306;2022-12-29T06:40:51;33.67;;;17.85;;
43933;SDS011;59081;42.706;23.306;2022-12-29T06:43:17;30.92;;;18.33;;
43933;SDS011;59081;42.706;23.306;2022-12-29T06:45:43;33.45;;;19.20;;
43933;SDS011;59081;42.706;23.306;2022-12-29T06:48:11;32.65;;;19.08;;
43933;SDS011;59081;42.706;23.306;2022-12-29T06:50:38;34.58;;;20.30;;
43933;SDS011;59081;42.706;23.306;2022-12-29T06:53:03;43.40;;;20.92;;
43933;SDS011;59081;42.706;23.306;2022-12-29T06:55:29;31.13;;;19.02;;
43933;SDS011;59081;42.706;23.306;2022-12-29T06:58:01;27.65;;;17.98;;
43933;SDS011;59081;42.706;23.306;2022-12-29T07:00:27;33.45;;;18.65;;
43933;SDS011;59081;42.706;23.306;2022-12-29T07:02:54;32.28;;;19.20;;
43933;SDS011;59081;42.706;23.306;2022-12-29T07:07:52;35.92;;;19.63;;
43933;SDS011;59081;42.706;23.306;2022-12-29T07:10:19;38.53;;;22.05;;
43933;SDS011;59081;42.706;23.306;2022-12-29T07:12:47;35.60;;;21.38;;
43933;SDS011;59081;42.706;23.306;2022-12-29T07:15:16;38.03;;;20.45;;
43933;SDS011;59081;42.706;23.306;2022-12-29T07:17:45;37.88;;;20.77;;
43933;SDS011;59081;42.706;23.306;2022-12-29T07:20:14;33.28;;;18.15;;
43933;SDS011;59081;42.706;23.306;2022-12-29T07:22:41;32.75;;;18.58;;
43933;SDS011;59081;42.706;23.306;2022-12-29T07:25:07;31.38;;;19.23;;
43933;SDS011;59081;42.706;23.306;2022-12-29T07:27:33;31.50;;;17.92;;
43933;SDS011;59081;42.706;23.306;2022-12-29T07:30:01;33.67;;;18.30;;
43933;SDS011;59081;42.706;23.306;2022-12-29T07:32:27;27.70;;;17.73;;
43933;SDS011;59081;42.706;23.306;2022-12-29T07:34:53;32.67;;;18.88;;
43933;SDS011;59081;42.706;23.306;2022-12-29T07:37:19;29.05;;;18.13;;
43933;SDS011;59081;42.706;23.306;2022-12-29T07:39:44;33.90;;;18.58;;
43933;SDS011;59081;42.706;23.306;2022-12-29T07:42:13;28.00;;;17.80;;
43933;SDS011;59081;42.706;23.306;2022-12-29T07:44:46;32.30;;;17.67;;
43933;SDS011;59081;42.706;23.306;2022-12-29T07:47:12;29.05;;;18.33;;
43933;SDS011;59081;42.706;23.306;2022-12-29T07:49:38;32.80;;;17.60;;
43933;SDS011;59081;42.706;23.306;2022-12-29T07:52:04;31.30;;;16.80;;
43933;SDS011;59081;42.706;23.306;2022-12-29T07:54:29;25.58;;;16.85;;
43933;SDS011;59081;42.706;23.306;2022-12-29T07:56:56;29.02;;;17.88;;
43933;SDS011;59081;42.706;23.306;2022-12-29T07:59:22;34.08;;;18.48;;
43933;SDS011;59081;42.706;23.306;2022-12-29T08:01:48;29.52;;;17.10;;
43933;SDS011;59081;42.706;23.306;2022-12-29T08:04:14;39.60;;;19.15;;
43933;SDS011;59081;42.706;23.306;2022-12-29T08:06:39;33.20;;;18.23;;
43933;SDS011;59081;42.706;23.306;2022-12-29T08:09:05;34.45;;;18.42;;
43933;SDS011;59081;42.706;23.306;2022-12-29T08:11:31;38.83;;;16.88;;
43933;SDS011;59081;42.706;23.306;2022-12-29T08:13:57;30.13;;;15.57;;
43933;SDS011;59081;42.706;23.306;2022-12-29T08:16:22;27.90;;;15.98;;
43933;SDS011;59081;42.706;23.306;2022-12-29T08:18:48;29.38;;;14.82;;
43933;SDS011;59081;42.706;23.306;2022-12-29T08:21:14;25.60;;;15.25;;
43933;SDS011;59081;42.706;23.306;2022-12-29T08:23:39;28.80;;;15.32;;
43933;SDS011;59081;42.706;23.306;2022-12-29T08:26:05;26.88;;;15.85;;
43933;SDS011;59081;42.706;23.306;2022-12-29T08:28:31;25.48;;;16.20;;
43933;SDS011;59081;42.706;23.306;2022-12-29T08:30:58;28.77;;;16.52;;
43933;SDS011;59081;42.706;23.306;2022-12-29T08:33:25;27.73;;;15.65;;
43933;SDS011;59081;42.706;23.306;2022-12-29T08:36:03;33.22;;;17.23;;
43933;SDS011;59081;42.706;23.306;2022-12-29T08:38:30;26.73;;;16.35;;
43933;SDS011;59081;42.706;23.306;2022-12-29T08:40:57;26.75;;;14.88;;
43933;SDS011;59081;42.706;23.306;2022-12-29T08:43:23;28.23;;;15.73;;
43933;SDS011;59081;42.706;23.306;2022-12-29T08:45:50;33.05;;;15.93;;
43933;SDS011;59081;42.706;23.306;2022-12-29T08:48:15;32.00;;;16.95;;
43933;SDS011;59081;42.706;23.306;2022-12-29T08:50:44;32.97;;;16.05;;
43933;SDS011;59081;42.706;23.306;2022-12-29T08:53:11;32.65;;;16.50;;
43933;SDS011;59081;42.706;23.306;2022-12-29T08:55:37;31.95;;;16.63;;
43933;SDS011;59081;42.706;23.306;2022-12-29T08:58:02;30.52;;;18.40;;
43933;SDS011;59081;42.706;23.306;2022-12-29T09:00:28;30.45;;;17.92;;
43933;SDS011;59081;42.706;23.306;2022-12-29T09:02:54;29.73;;;18.20;;
43933;SDS011;59081;42.706;23.306;2022-12-29T09:05:19;35.30;;;18.98;;
43933;SDS011;59081;42.706;23.306;2022-12-29T09:07:45;37.75;;;19.02;;
43933;SDS011;59081;42.706;23.306;2022-12-29T09:10:11;32.13;;;18.58;;
43933;SDS011;59081;42.706;23.306;2022-12-29T09:12:36;32.70;;;18.33;;
43933;SDS011;59081;42.706;23.306;2022-12-29T09:15:03;27.67;;;18.55;;
43933;SDS011;59081;42.706;23.306;2022-12-29T09:17:29;31.00;;;19.17;;
43933;SDS011;59081;42.706;23.306;2022-12-29T09:20:09;32.33;;;19.25;;
43933;SDS011;59081;42.706;23.306;2022-12-29T09:22:36;33.30;;;19.27;;
43933;SDS011;59081;42.706;23.306;2022-12-29T09:25:04;30.88;;;19.17;;
43933;SDS011;59081;42.706;23.306;2022-12-29T09:27:30;34.00;;;19.85;;
43933;SDS011;59081;42.706;23.306;2022-12-29T09:29:58;33.35;;;21.08;;
43933;SDS011;59081;42.706;23.306;2022-12-29T09:32:27;37.53;;;21.52;;
43933;SDS011;59081;42.706;23.306;2022-12-29T09:34:52;39.42;;;20.55;;
43933;SDS011;59081;42.706;23.306;2022-12-29T09:37:18;31.08;;;19.08;;
43933;SDS011;59081;42.706;23.306;2022-12-29T09:39:46;30.50;;;18.02;;
43933;SDS011;59081;42.706;23.306;2022-12-29T09:42:14;35.10;;;19.38;;
43933;SDS011;59081;42.706;23.306;2022-12-29T09:47:14;31.77;;;18.38;;
43933;SDS011;59081;42.706;23.306;2022-12-29T09:49:44;29.77;;;19.23;;
43933;SDS011;59081;42.706;23.306;2022-12-29T09:52:29;30.15;;;18.30;;
43933;SDS011;59081;42.706;23.306;2022-12-29T09:55:04;24.73;;;17.63;;
43933;SDS011;59081;42.706;23.306;2022-12-29T10:00:21;29.65;;;17.80;;
43933;SDS011;59081;42.706;23.306;2022-12-29T10:02:51;23.55;;;15.80;;
43933;SDS011;59081;42.706;23.306;2022-12-29T10:05:28;25.20;;;16.80;;
43933;SDS011;59081;42.706;23.306;2022-12-29T10:11:03;25.52;;;15.93;;
43933;SDS011;59081;42.706;23.306;2022-12-29T10:13:56;30.10;;;18.27;;
43933;SDS011;59081;42.706;23.306;2022-12-29T10:19:47;24.88;;;16.77;;
43933;SDS011;59081;42.706;23.306;2022-12-29T10:25:18;26.15;;;16.83;;
43933;SDS011;59081;42.706;23.306;2022-12-29T10:27:49;25.30;;;15.60;;
43933;SDS011;59081;42.706;23.306;2022-12-29T10:30:20;24.15;;;15.38;;
43933;SDS011;59081;42.706;23.306;2022-12-29T10:32:52;25.88;;;15.90;;
43933;SDS011;59081;42.706;23.306;2022-12-29T10:35:23;25.42;;;15.05;;
43933;SDS011;59081;42.706;23.306;2022-12-29T10:37:57;24.05;;;15.75;;
43933;SDS011;59081;42.706;23.306;2022-12-29T10:40:38;25.58;;;15.27;;
43933;SDS011;59081;42.706;23.306;2022-12-29T10:43:17;26.45;;;15.15;;
43933;SDS011;59081;42.706;23.306;2022-12-29T10:46:02;26.00;;;15.95;;
43933;SDS011;59081;42.706;23.306;2022-12-29T10:48:34;26.83;;;15.23;;
43933;SDS011;59081;42.706;23.306;2022-12-29T10:51:01;29.80;;;14.77;;
43933;SDS011;59081;42.706;23.306;2022-12-29T10:53:35;25.60;;;15.90;;
43933;SDS011;59081;42.706;23.306;2022-12-29T10:58:49;27.05;;;14.15;;
43933;SDS011;59081;42.706;23.306;2022-12-29T11:01:19;21.17;;;15.15;;
43933;SDS011;59081;42.706;23.306;2022-12-29T11:06:43;28.33;;;14.82;;
43933;SDS011;59081;42.706;23.306;2022-12-29T11:09:11;23.67;;;15.13;;
43933;SDS011;59081;42.706;23.306;2022-12-29T11:11:40;23.08;;;14.65;;
43933;SDS011;59081;42.706;23.306;2022-12-29T11:14:11;26.85;;;16.38;;
43933;SDS011;59081;42.706;23.306;2022-12-29T11:16:39;23.15;;;15.43;;
43933;SDS011;59081;42.706;23.306;2022-12-29T11:19:16;29.95;;;17.05;;
43933;SDS011;59081;42.706;23.306;2022-12-29T11:21:48;25.15;;;15.98;;
43933;SDS011;59081;42.706;23.306;2022-12-29T11:24:19;25.98;;;16.00;;
43933;SDS011;59081;42.706;23.306;2022-12-29T11:26:45;25.75;;;16.00;;
43933;SDS011;59081;42.706;23.306;2022-12-29T11:29:22;26.75;;;16.50;;
43933;SDS011;59081;42.706;23.306;2022-12-29T11:32:05;30.20;;;15.52;;
43933;SDS011;59081;42.706;23.306;2022-12-29T11:34:46;20.98;;;15.10;;
43933;SDS011;59081;42.706;23.306;2022-12-29T11:37:13;24.15;;;14.20;;
43933;SDS011;59081;42.706;23.306;2022-12-29T11:40:05;24.25;;;16.50;;
43933;SDS011;59081;42.706;23.306;2022-12-29T11:45:16;22.45;;;13.65;;
43933;SDS011;59081;42.706;23.306;2022-12-29T11:47:48;27.58;;;14.77;;
43933;SDS011;59081;42.706;23.306;2022-12-29T11:50:22;21.30;;;14.30;;
43933;SDS011;59081;42.706;23.306;2022-12-29T11:52:59;22.83;;;14.00;;
43933;SDS011;59081;42.706;23.306;2022-12-29T11:55:28;27.20;;;13.60;;
43933;SDS011;59081;42.706;23.306;2022-12-29T11:57:57;24.63;;;13.77;;
43933;SDS011;59081;42.706;23.306;2022-12-29T12:00:27;27.27;;;14.88;;
43933;SDS011;59081;42.706;23.306;2022-12-29T12:05:48;25.13;;;14.50;;
43933;SDS011;59081;42.706;23.306;2022-12-29T12:10:53;28.33;;;16.05;;
43933;SDS011;59081;42.706;23.306;2022-12-29T12:16:42;28.02;;;14.63;;
43933;SDS011;59081;42.706;23.306;2022-12-29T12:21:50;25.13;;;15.10;;
43933;SDS011;59081;42.706;23.306;2022-12-29T12:27:24;21.58;;;14.13;;
43933;SDS011;59081;42.706;23.306;2022-12-29T12:30:02;23.60;;;15.02;;
43933;SDS011;59081;42.706;23.306;2022-12-29T12:35:13;25.10;;;15.80;;
43933;SDS011;59081;42.706;23.306;2022-12-29T12:40:25;22.60;;;14.15;;
43933;SDS011;59081;42.706;23.306;2022-12-29T12:50:48;25.33;;;15.20;;
43933;SDS011;59081;42.706;23.306;2022-12-29T12:53:26;26.48;;;15.25;;
43933;SDS011;59081;42.706;23.306;2022-12-29T12:57:01;22.70;;;15.02;;
43933;SDS011;59081;42.706;23.306;2022-12-29T13:02:32;25.13;;;15.70;;
43933;SDS011;59081;42.706;23.306;2022-12-29T13:04:56;25.48;;;14.48;;
43933;SDS011;59081;42.706;23.306;2022-12-29T13:07:45;23.52;;;14.45;;
43933;SDS011;59081;42.706;23.306;2022-12-29T13:15:57;26.60;;;16.45;;
43933;SDS011;59081;42.706;23.306;2022-12-29T13:24:25;46.45;;;22.75;;
43933;SDS011;59081;42.706;23.306;2022-12-29T13:27:04;32.33;;;16.40;;
43933;SDS011;59081;42.706;23.306;2022-12-29T13:29:44;25.05;;;14.98;;
43933;SDS011;59081;42.706;23.306;2022-12-29T13:35:19;34.15;;;14.77;;
43933;SDS011;59081;42.706;23.306;2022-12-29T13:41:08;25.85;;;16.60;;
43933;SDS011;59081;42.706;23.306;2022-12-29T13:43:39;24.55;;;14.73;;
43933;SDS011;59081;42.706;23.306;2022-12-29T13:46:26;23.30;;;15.10;;
43933;SDS011;59081;42.706;23.306;2022-12-29T13:49:08;24.33;;;15.38;;
43933;SDS011;59081;42.706;23.306;2022-12-29T13:51:37;25.00;;;15.55;;
43933;SDS011;59081;42.706;23.306;2022-12-29T13:54:15;31.85;;;16.35;;
43933;SDS011;59081;42.706;23.306;2022-12-29T13:57:06;27.92;;;16.23;;
43933;SDS011;59081;42.706;23.306;2022-12-29T14:05:36;28.65;;;18.98;;
43933;SDS011;59081;42.706;23.306;2022-12-29T14:08:05;35.40;;;18.67;;
43933;SDS011;59081;42.706;23.306;2022-12-29T14:10:50;30.85;;;19.98;;
43933;SDS011;59081;42.706;23.306;2022-12-29T14:13:18;34.03;;;18.63;;
43933;SDS011;59081;42.706;23.306;2022-12-29T14:15:50;26.33;;;15.90;;
43933;SDS011;59081;42.706;23.306;2022-12-29T14:18:32;29.20;;;17.23;;
43933;SDS011;59081;42.706;23.306;2022-12-29T14:21:03;36.13;;;19.35;;
43933;SDS011;59081;42.706;23.306;2022-12-29T14:23:37;39.92;;;20.55;;
43933;SDS011;59081;42.706;23.306;2022-12-29T14:28:53;43.42;;;20.65;;
43933;SDS011;59081;42.706;23.306;2022-12-29T14:36:36;32.53;;;19.80;;
43933;SDS011;59081;42.706;23.306;2022-12-29T14:39:04;35.58;;;18.42;;
43933;SDS011;59081;42.706;23.306;2022-12-29T14:42:06;34.92;;;19.13;;
43933;SDS011;59081;42.706;23.306;2022-12-29T14:44:48;37.63;;;19.13;;
43933;SDS011;59081;42.706;23.306;2022-12-29T14:47:37;36.95;;;20.65;;
43933;SDS011;59081;42.706;23.306;2022-12-29T14:50:07;31.80;;;17.15;;
43933;SDS011;59081;42.706;23.306;2022-12-29T14:58:20;35.10;;;18.58;;
43933;SDS011;59081;42.706;23.306;2022-12-29T15:01:21;36.90;;;20.15;;
43933;SDS011;59081;42.706;23.306;2022-12-29T15:04:14;40.47;;;19.23;;
43933;SDS011;59081;42.706;23.306;2022-12-29T15:06:46;36.78;;;19.17;;
43933;SDS011;59081;42.706;23.306;2022-12-29T15:12:03;34.83;;;19.35;;
43933;SDS011;59081;42.706;23.306;2022-12-29T15:14:52;47.20;;;22.00;;
43933;SDS011;59081;42.706;23.306;2022-12-29T15:17:24;33.60;;;20.73;;
43933;SDS011;59081;42.706;23.306;2022-12-29T15:19:50;41.42;;;21.88;;
43933;SDS011;59081;42.706;23.306;2022-12-29T15:22:16;45.30;;;21.65;;
43933;SDS011;59081;42.706;23.306;2022-12-29T15:24:45;41.33;;;21.55;;
43933;SDS011;59081;42.706;23.306;2022-12-29T15:27:14;35.30;;;21.60;;
43933;SDS011;59081;42.706;23.306;2022-12-29T15:29:44;44.78;;;25.85;;
43933;SDS011;59081;42.706;23.306;2022-12-29T15:34:51;42.80;;;23.52;;
43933;SDS011;59081;42.706;23.306;2022-12-29T15:37:21;42.92;;;25.27;;
43933;SDS011;59081;42.706;23.306;2022-12-29T15:40:00;42.30;;;25.52;;
43933;SDS011;59081;42.706;23.306;2022-12-29T15:42:31;53.30;;;27.83;;
43933;SDS011;59081;42.706;23.306;2022-12-29T15:45:13;50.70;;;27.42;;
43933;SDS011;59081;42.706;23.306;2022-12-29T15:47:43;54.72;;;29.83;;
43933;SDS011;59081;42.706;23.306;2022-12-29T15:52:53;42.15;;;23.15;;
43933;SDS011;59081;42.706;23.306;2022-12-29T15:55:43;42.72;;;28.00;;
43933;SDS011;59081;42.706;23.306;2022-12-29T15:58:30;47.30;;;28.05;;
43933;SDS011;59081;42.706;23.306;2022-12-29T16:01:04;59.00;;;31.63;;
43933;SDS011;59081;42.706;23.306;2022-12-29T16:03:31;84.07;;;38.67;;
43933;SDS011;59081;42.706;23.306;2022-12-29T16:06:24;76.00;;;37.50;;
43933;SDS011;59081;42.706;23.306;2022-12-29T16:11:38;111.13;;;53.03;;
43933;SDS011;59081;42.706;23.306;2022-12-29T16:14:16;108.43;;;49.17;;
43933;SDS011;59081;42.706;23.306;2022-12-29T16:16:49;82.85;;;42.58;;
43933;SDS011;59081;42.706;23.306;2022-12-29T16:19:20;104.82;;;46.42;;
43933;SDS011;59081;42.706;23.306;2022-12-29T16:21:50;82.50;;;41.00;;
43933;SDS011;59081;42.706;23.306;2022-12-29T16:24:19;81.40;;;38.72;;
43933;SDS011;59081;42.706;23.306;2022-12-29T16:26:49;82.78;;;39.15;;
43933;SDS011;59081;42.706;23.306;2022-12-29T16:29:30;85.32;;;45.20;;
43933;SDS011;59081;42.706;23.306;2022-12-29T16:31:57;97.65;;;45.83;;
43933;SDS011;59081;42.706;23.306;2022-12-29T16:39:56;73.28;;;36.65;;
43933;SDS011;59081;42.706;23.306;2022-12-29T16:42:50;68.70;;;32.90;;
43933;SDS011;59081;42.706;23.306;2022-12-29T16:47:48;66.63;;;38.50;;
43933;SDS011;59081;42.706;23.306;2022-12-29T16:50:30;67.72;;;35.92;;
43933;SDS011;59081;42.706;23.306;2022-12-29T16:53:01;57.10;;;32.50;;
43933;SDS011;59081;42.706;23.306;2022-12-29T16:55:28;58.80;;;33.35;;
43933;SDS011;59081;42.706;23.306;2022-12-29T16:57:54;61.50;;;33.97;;
43933;SDS011;59081;42.706;23.306;2022-12-29T17:00:22;65.45;;;34.25;;
43933;SDS011;59081;42.706;23.306;2022-12-29T17:02:51;68.50;;;37.00;;
43933;SDS011;59081;42.706;23.306;2022-12-29T17:05:34;79.45;;;37.28;;